This is the latest recevied weather packets stored in our database for station/object N7SXG. If no packets are shown the sender has not sent any weather packets the latest 10 day(s).
| Time | Temp. | Humidity | Pressure | Rain* | Wind** | Luminosity | Snow |
|---|---|---|---|---|---|---|---|
| 1778079663 | 12.22° C | 69% | 1013.6 hPa | 0.25 mm | - | - | - |
| 1778074295 | 7.22° C | 92% | 1012.9 hPa | 0 mm | - | - | - |
| 1778073363 | 7.22° C | 93% | 1012.9 hPa | 0 mm | - | - | - |
| 1778070655 | 6.11° C | 93% | 1012.6 hPa | 0 mm | - | - | - |
| 1778064364 | 5.56° C | 93% | 1010.8 hPa | 0 mm | - | - | - |
| 1778056259 | 6.11° C | 93% | 1009.4 hPa | 0.76 mm | - | - | - |
| 1778049956 | 6.67° C | 93% | 1009.5 hPa | 1.52 mm | - | - | - |
| 1778045456 | 7.78° C | 93% | 1009.2 hPa | 4.06 mm | - | - | - |
| 1778040955 | 8.33° C | 92% | 1009.3 hPa | 1.02 mm | - | - | - |
| 1778040057 | 8.89° C | 92% | 1009.4 hPa | 0.25 mm | - | - | - |
| 1778034658 | 9.44° C | 92% | 1009.6 hPa | 2.03 mm | - | - | - |
| 1778029279 | 11.11° C | 89% | 1009.5 hPa | 4.57 mm | - | - | - |
| 1778028356 | 12.22° C | 89% | 1009.3 hPa | 5.08 mm | - | - | - |
| 1778019356 | 15.56° C | 90% | 1009.1 hPa | 0.25 mm | - | - | - |
| 1778015758 | 15.56° C | 88% | 1009.1 hPa | 0.76 mm | - | - | - |
| 1778013959 | 16.11° C | 87% | 1009 hPa | 3.81 mm | - | - | - |
| 1778012158 | 16.67° C | 84% | 1009.3 hPa | 2.79 mm | - | - | - |
| 1778010356 | 18.33° C | 73% | 1009.2 hPa | 0 mm | - | - | - |
| 1778009457 | 18.33° C | 73% | 1009.2 hPa | 0 mm | - | - | - |
| 1778007664 | 18.33° C | 75% | 1009.4 hPa | 0 mm | - | - | - |
| 1778006762 | 17.78° C | 75% | 1009.6 hPa | 0 mm | - | - | - |
| 1778002267 | 18.89° C | 73% | 1010.1 hPa | 0.25 mm | - | - | - |
| 1777998656 | 19.44° C | 71% | 1010.3 hPa | 0 mm | - | - | - |
| 1777996856 | 19.44° C | 70% | 1010.2 hPa | 0 mm | - | - | - |
| 1777993257 | 18.89° C | 73% | 1010 hPa | 0 mm | - | - | - |
* Rain latest hour (hover to see other rain measurements)
** Current wind speed in m/s (hover to see current wind gust speed)